createdAt,value
2022-09-07T00:00:54.538Z,20.4
2022-09-07T00:02:11.642Z,20.5
2022-09-07T00:03:28.746Z,20.5
2022-09-07T00:04:45.851Z,20.5
2022-09-07T00:06:02.955Z,20.5
2022-09-07T00:07:20.059Z,20.6
2022-09-07T00:08:37.163Z,20.6
2022-09-07T00:09:54.267Z,20.6
2022-09-07T00:11:11.371Z,20.6
2022-09-07T00:12:28.475Z,20.6
2022-09-07T00:13:45.580Z,20.7
2022-09-07T00:15:02.684Z,20.7
2022-09-07T00:16:18.804Z,20.6
2022-09-07T00:17:35.908Z,20.6
2022-09-07T00:18:53.012Z,20.7
2022-09-07T00:20:10.117Z,20.7
2022-09-07T00:21:27.221Z,20.7
2022-09-07T00:22:44.325Z,20.6
2022-09-07T00:24:01.429Z,20.6
2022-09-07T00:25:18.534Z,20.6
2022-09-07T00:26:35.638Z,20.6
2022-09-07T00:27:52.742Z,20.6
2022-09-07T00:29:09.846Z,20.6
2022-09-07T00:30:26.950Z,20.6
2022-09-07T00:31:44.054Z,20.6
2022-09-07T00:33:00.175Z,20.6
2022-09-07T00:34:17.279Z,20.6
2022-09-07T00:35:34.383Z,20.5
2022-09-07T00:36:51.488Z,20.5
2022-09-07T00:38:08.592Z,20.5
2022-09-07T00:39:25.696Z,20.5
2022-09-07T00:40:42.800Z,20.4
2022-09-07T00:41:59.904Z,20.4
2022-09-07T00:43:17.008Z,20.3
2022-09-07T00:44:34.113Z,20.2
2022-09-07T00:45:51.217Z,20.2
2022-09-07T00:47:08.321Z,20.1
2022-09-07T00:48:25.425Z,20
2022-09-07T00:49:41.546Z,19.9
2022-09-07T00:50:58.650Z,19.9
2022-09-07T00:52:15.754Z,19.9
2022-09-07T00:53:32.858Z,19.8
2022-09-07T00:54:49.962Z,19.8
2022-09-07T00:56:07.067Z,19.8
2022-09-07T00:57:24.169Z,19.7
2022-09-07T00:58:41.274Z,19.7
2022-09-07T00:59:58.378Z,19.5
2022-09-07T01:01:15.482Z,19.4
2022-09-07T01:02:32.586Z,19.3
2022-09-07T01:03:49.690Z,19.2
2022-09-07T01:05:06.794Z,19.1
2022-09-07T01:06:22.914Z,19
2022-09-07T01:07:40.018Z,19
2022-09-07T01:08:57.122Z,19
2022-09-07T01:10:14.226Z,18.9
2022-09-07T01:11:31.331Z,18.8
2022-09-07T01:12:48.434Z,18.8
2022-09-07T01:14:05.539Z,18.8
2022-09-07T01:15:22.643Z,18.8
2022-09-07T01:16:39.746Z,18.8
2022-09-07T01:17:56.850Z,18.8
2022-09-07T01:19:13.954Z,18.8
2022-09-07T01:20:31.058Z,18.8
2022-09-07T01:21:48.162Z,18.9
2022-09-07T01:23:04.282Z,18.9
2022-09-07T01:24:21.386Z,18.9
2022-09-07T01:25:38.490Z,18.8
2022-09-07T01:26:55.594Z,18.8
2022-09-07T01:28:12.698Z,18.7
2022-09-07T01:29:29.802Z,18.7
2022-09-07T01:30:46.906Z,18.7
2022-09-07T01:32:04.010Z,18.7
2022-09-07T01:33:21.114Z,18.6
2022-09-07T01:34:38.218Z,18.6
2022-09-07T01:35:55.321Z,18.6
2022-09-07T01:37:12.425Z,18.5
2022-09-07T01:38:29.529Z,18.5
2022-09-07T01:39:45.649Z,18.4
2022-09-07T01:41:02.753Z,18.3
2022-09-07T01:42:19.857Z,18.1
2022-09-07T01:43:36.961Z,17.8
2022-09-07T01:44:54.065Z,17.6
2022-09-07T01:46:11.169Z,17.5
2022-09-07T01:47:28.272Z,17.4
2022-09-07T01:48:45.376Z,17.5
2022-09-07T01:50:02.480Z,17.4
2022-09-07T01:51:19.585Z,17.4
2022-09-07T01:52:36.689Z,17.4
2022-09-07T01:53:53.794Z,17.4
2022-09-07T01:55:10.898Z,17.4
2022-09-07T01:56:27.018Z,17.4
2022-09-07T01:57:44.123Z,17.4
2022-09-07T01:59:01.227Z,17.4
2022-09-07T02:00:18.332Z,17.5
2022-09-07T02:01:35.436Z,17.6
2022-09-07T02:02:52.540Z,17.7
2022-09-07T02:04:09.645Z,17.8
2022-09-07T02:05:26.749Z,17.8
2022-09-07T02:06:43.854Z,17.9
2022-09-07T02:08:00.958Z,17.9
2022-09-07T02:09:18.062Z,18
2022-09-07T02:10:35.167Z,18
2022-09-07T02:11:52.271Z,18
2022-09-07T02:13:08.391Z,18.1
2022-09-07T02:14:25.496Z,18.1
2022-09-07T02:15:42.600Z,18.1
2022-09-07T02:16:59.705Z,18
2022-09-07T02:18:16.809Z,18
2022-09-07T02:19:33.912Z,18
2022-09-07T02:20:51.016Z,18
2022-09-07T02:22:08.120Z,18
2022-09-07T02:23:25.224Z,18
2022-09-07T02:24:42.328Z,18
2022-09-07T02:25:59.433Z,18
2022-09-07T02:27:16.537Z,18.1
2022-09-07T02:28:33.641Z,18
2022-09-07T02:29:49.759Z,18
2022-09-07T02:31:06.864Z,18
2022-09-07T02:32:23.968Z,18
2022-09-07T02:33:41.072Z,18
2022-09-07T02:34:58.177Z,18
2022-09-07T02:36:15.281Z,18
2022-09-07T02:37:31.402Z,18
2022-09-07T02:38:48.506Z,18
2022-09-07T02:40:05.611Z,18
2022-09-07T02:41:22.715Z,17.9
2022-09-07T02:42:39.820Z,17.9
2022-09-07T02:43:56.924Z,17.9
2022-09-07T02:45:14.028Z,17.7
2022-09-07T02:46:31.133Z,17.6
2022-09-07T02:47:48.237Z,17.6
2022-09-07T02:49:05.341Z,17.6
2022-09-07T02:50:22.446Z,17.6
2022-09-07T02:51:39.550Z,17.6
2022-09-07T02:52:56.655Z,17.6
2022-09-07T02:54:12.775Z,17.6
2022-09-07T02:55:29.879Z,17.7
2022-09-07T02:56:46.984Z,17.7
2022-09-07T02:58:04.088Z,17.7
2022-09-07T02:59:21.192Z,17.7
2022-09-07T03:00:38.296Z,17.7
2022-09-07T03:01:55.401Z,17.7
2022-09-07T03:03:12.505Z,17.7
2022-09-07T03:04:29.609Z,17.7
2022-09-07T03:05:46.713Z,17.6
2022-09-07T03:07:03.818Z,17.6
2022-09-07T03:08:20.923Z,17.6
2022-09-07T03:09:38.028Z,17.6
2022-09-07T03:10:54.148Z,17.6
2022-09-07T03:12:11.253Z,17.6
2022-09-07T03:13:28.357Z,17.6
2022-09-07T03:14:45.462Z,17.7
2022-09-07T03:16:02.566Z,17.7
2022-09-07T03:17:19.670Z,17.7
2022-09-07T03:18:36.774Z,17.7
2022-09-07T03:19:53.878Z,17.7
2022-09-07T03:21:10.983Z,17.7
2022-09-07T03:22:28.087Z,17.7
2022-09-07T03:23:45.192Z,17.7
2022-09-07T03:25:02.296Z,17.7
2022-09-07T03:26:19.400Z,17.7
2022-09-07T03:27:35.520Z,17.7
2022-09-07T03:28:52.625Z,17.7
2022-09-07T03:30:09.729Z,17.7
2022-09-07T03:31:26.834Z,17.7
2022-09-07T03:32:43.938Z,17.7
2022-09-07T03:34:01.042Z,17.7
2022-09-07T03:35:18.147Z,17.7
2022-09-07T03:36:35.252Z,17.7
2022-09-07T03:37:52.356Z,17.7
2022-09-07T03:39:09.460Z,17.7
2022-09-07T03:40:26.565Z,17.6
2022-09-07T03:41:43.669Z,17.6
2022-09-07T03:43:00.773Z,17.6
2022-09-07T03:44:16.894Z,17.6
2022-09-07T03:45:33.998Z,17.6
2022-09-07T03:46:51.103Z,17.6
2022-09-07T03:48:08.207Z,17.5
2022-09-07T03:49:25.312Z,17.5
2022-09-07T03:50:42.416Z,17.5
2022-09-07T03:51:59.520Z,17.4
2022-09-07T03:53:16.625Z,17.4
2022-09-07T03:54:33.729Z,17.4
2022-09-07T03:55:50.833Z,17.3
2022-09-07T03:57:07.938Z,17.3
2022-09-07T03:58:25.042Z,17.3
2022-09-07T03:59:42.146Z,17.3
2022-09-07T04:00:58.266Z,17.3
2022-09-07T04:02:15.370Z,17.2
2022-09-07T04:03:32.474Z,17.2
2022-09-07T04:04:49.578Z,17.2
2022-09-07T04:06:06.682Z,17.1
2022-09-07T04:07:23.786Z,17.1
2022-09-07T04:08:40.891Z,17.1
2022-09-07T04:09:57.995Z,17.1
2022-09-07T04:11:15.099Z,17.1
2022-09-07T04:12:32.203Z,17.1
2022-09-07T04:13:49.307Z,17.1
2022-09-07T04:15:06.411Z,17.1
2022-09-07T04:16:23.515Z,17
2022-09-07T04:17:39.635Z,17
2022-09-07T04:18:56.739Z,17
2022-09-07T04:20:13.843Z,17
2022-09-07T04:21:30.948Z,16.9
2022-09-07T04:22:48.052Z,16.9
2022-09-07T04:24:05.156Z,16.9
2022-09-07T04:25:22.260Z,16.9
2022-09-07T04:26:39.364Z,16.9
2022-09-07T04:27:56.468Z,16.9
2022-09-07T04:29:13.572Z,17
2022-09-07T04:30:30.676Z,17
2022-09-07T04:31:47.780Z,17.1
2022-09-07T04:33:04.884Z,17.1
2022-09-07T04:34:21.005Z,17.2
2022-09-07T04:35:38.108Z,17.2
2022-09-07T04:36:55.212Z,17.2
2022-09-07T04:38:12.316Z,17.2
2022-09-07T04:39:29.420Z,17.2
2022-09-07T04:40:46.524Z,17.2
2022-09-07T04:42:03.629Z,17.2
2022-09-07T04:43:20.733Z,17.3
2022-09-07T04:44:37.837Z,17.2
2022-09-07T04:45:54.941Z,17.2
2022-09-07T04:47:12.045Z,17.2
2022-09-07T04:48:29.149Z,17.3
2022-09-07T04:49:46.253Z,17.3
2022-09-07T04:51:02.374Z,17.3
2022-09-07T04:52:19.478Z,17.3
2022-09-07T04:53:36.582Z,17.2
2022-09-07T04:54:53.686Z,17.2
2022-09-07T04:56:10.790Z,17.1
2022-09-07T04:57:27.894Z,17.1
2022-09-07T04:58:44.998Z,17
2022-09-07T05:00:02.102Z,16.9
2022-09-07T05:01:19.206Z,16.9
2022-09-07T05:02:36.310Z,16.8
2022-09-07T05:03:53.414Z,16.8
2022-09-07T05:05:10.519Z,16.8
2022-09-07T05:06:27.623Z,16.9
2022-09-07T05:07:43.743Z,16.9
2022-09-07T05:09:00.847Z,17
2022-09-07T05:10:17.951Z,17
2022-09-07T05:11:35.055Z,17.1
2022-09-07T05:12:52.159Z,17.1
2022-09-07T05:14:09.263Z,17.1
2022-09-07T05:15:26.367Z,17.2
2022-09-07T05:16:43.471Z,17.3
2022-09-07T05:18:00.575Z,17.3
2022-09-07T05:19:17.679Z,17.4
2022-09-07T05:20:34.784Z,17.5
2022-09-07T05:21:51.889Z,17.5
2022-09-07T05:23:08.993Z,17.5
2022-09-07T05:24:25.113Z,17.5
2022-09-07T05:25:42.217Z,17.5
2022-09-07T05:26:59.321Z,17.6
2022-09-07T05:28:16.425Z,17.6
2022-09-07T05:29:33.529Z,17.8
2022-09-07T05:30:50.634Z,17.9
2022-09-07T05:32:07.738Z,17.9
2022-09-07T05:33:24.842Z,18
2022-09-07T05:34:41.946Z,18.1
2022-09-07T05:35:59.051Z,18.1
2022-09-07T05:37:16.155Z,18.2
2022-09-07T05:38:33.260Z,18.2
2022-09-07T05:39:50.364Z,18.2
2022-09-07T05:41:06.485Z,18.4
2022-09-07T05:42:23.589Z,18.5
2022-09-07T05:43:40.693Z,18.7
2022-09-07T05:44:57.798Z,18.8
2022-09-07T05:46:14.902Z,19
2022-09-07T05:47:32.007Z,19
2022-09-07T05:48:49.111Z,19.1
2022-09-07T05:50:06.215Z,19.2
2022-09-07T05:51:23.319Z,19.3
2022-09-07T05:52:40.421Z,19.4
2022-09-07T05:53:57.525Z,19.7
2022-09-07T05:55:14.629Z,20
2022-09-07T05:56:31.732Z,20.3
2022-09-07T05:57:47.853Z,20.4
2022-09-07T05:59:04.956Z,20.4
2022-09-07T06:00:22.061Z,20.3
2022-09-07T06:01:39.165Z,20.2
2022-09-07T06:02:56.269Z,20.4
2022-09-07T06:04:13.372Z,20.5
2022-09-07T06:05:30.476Z,20.6
2022-09-07T06:06:47.580Z,20.8
2022-09-07T06:08:04.685Z,21
2022-09-07T06:09:21.789Z,21.3
2022-09-07T06:10:38.893Z,21.4
2022-09-07T06:11:55.997Z,21.8
2022-09-07T06:13:13.101Z,22.4
2022-09-07T06:14:29.222Z,22.9
2022-09-07T06:15:46.325Z,23.7
2022-09-07T06:17:03.429Z,24.3
2022-09-07T06:18:20.533Z,25
2022-09-07T06:19:37.637Z,25.2
2022-09-07T06:20:54.741Z,25.2
2022-09-07T06:22:11.846Z,25.2
2022-09-07T06:23:28.950Z,25.9
2022-09-07T06:24:46.054Z,26.5
2022-09-07T06:26:03.158Z,27
2022-09-07T06:27:20.262Z,27.4
2022-09-07T06:28:37.366Z,27.5
2022-09-07T06:29:54.470Z,27.8
2022-09-07T06:31:10.590Z,28.2
2022-09-07T06:32:27.694Z,28.6
2022-09-07T06:33:44.799Z,29.2
2022-09-07T06:35:01.903Z,29.6
2022-09-07T06:36:19.007Z,30
2022-09-07T06:37:36.111Z,30.4
2022-09-07T06:38:53.215Z,30.7
2022-09-07T06:40:10.319Z,31
2022-09-07T06:41:27.424Z,31.3
2022-09-07T06:42:44.528Z,31.5
2022-09-07T06:44:01.633Z,31.3
2022-09-07T06:45:18.737Z,31.6
2022-09-07T06:46:35.841Z,31.8
2022-09-07T06:47:51.961Z,31.8
2022-09-07T06:49:09.065Z,31.6
2022-09-07T06:50:26.170Z,31.5
2022-09-07T06:51:43.274Z,31.8
2022-09-07T06:53:00.379Z,32
2022-09-07T06:54:17.483Z,32.3
2022-09-07T06:55:33.604Z,32.6
2022-09-07T06:56:50.709Z,32.8
2022-09-07T06:58:07.813Z,33
2022-09-07T06:59:24.918Z,33.2
2022-09-07T07:00:42.022Z,33.4
2022-09-07T07:01:59.126Z,33.7
2022-09-07T07:03:16.231Z,33.9
2022-09-07T07:04:33.335Z,33.7
2022-09-07T07:05:50.440Z,33.4
2022-09-07T07:07:07.545Z,33.4
2022-09-07T07:08:24.649Z,33.3
2022-09-07T07:09:41.754Z,33.5
2022-09-07T07:10:58.859Z,33.7
2022-09-07T07:13:32.084Z,33.9
2022-09-07T07:14:49.189Z,34.2
2022-09-07T07:16:06.293Z,34.3
2022-09-07T07:17:23.398Z,34.4
2022-09-07T07:18:40.503Z,34.5
2022-09-07T07:19:57.608Z,34.6
2022-09-07T07:21:14.712Z,34.9
2022-09-07T07:22:31.817Z,35.1
2022-09-07T07:23:48.921Z,35.2
2022-09-07T07:25:06.026Z,35.3
2022-09-07T07:26:23.131Z,35.2
2022-09-07T07:27:40.235Z,35.2
2022-09-07T07:28:56.356Z,35.4
2022-09-07T07:30:13.461Z,35.5
2022-09-07T07:31:30.566Z,35.2
2022-09-07T07:32:47.671Z,35
2022-09-07T07:34:04.775Z,34.9
2022-09-07T07:35:21.880Z,34.7
2022-09-07T07:36:38.985Z,34.7
2022-09-07T07:37:56.090Z,34.9
2022-09-07T07:39:13.194Z,35
2022-09-07T07:40:30.300Z,35.1
2022-09-07T07:41:47.406Z,34.9
2022-09-07T07:43:04.510Z,34.7
2022-09-07T07:44:21.615Z,34.6
2022-09-07T07:45:37.736Z,34.5
2022-09-07T07:46:54.841Z,34.3
2022-09-07T07:48:11.946Z,34.3
2022-09-07T07:49:29.050Z,34.2
2022-09-07T07:50:46.155Z,34.2
2022-09-07T07:52:03.260Z,34.3
2022-09-07T07:53:20.365Z,34.3
2022-09-07T07:54:37.470Z,34.5
2022-09-07T07:55:54.575Z,34.6
2022-09-07T07:57:11.679Z,34.6
2022-09-07T07:58:28.782Z,34.5
2022-09-07T07:59:45.887Z,34.2
2022-09-07T08:01:02.992Z,33.9
2022-09-07T08:02:19.113Z,33.9
2022-09-07T08:03:36.218Z,33.9
2022-09-07T08:04:53.323Z,33.9
2022-09-07T08:06:10.428Z,33.9
2022-09-07T08:07:27.534Z,33.9
2022-09-07T08:08:44.639Z,33.9
2022-09-07T08:10:01.743Z,34.1
2022-09-07T08:11:18.848Z,34
2022-09-07T08:12:35.953Z,34.1
2022-09-07T08:13:53.058Z,33.9
2022-09-07T08:15:10.163Z,33.3
2022-09-07T08:16:27.268Z,32.6
2022-09-07T08:17:44.373Z,32.7
2022-09-07T08:19:00.494Z,33
2022-09-07T08:20:17.599Z,33.1
2022-09-07T08:21:34.703Z,33.3
2022-09-07T08:22:51.808Z,33.6
2022-09-07T08:24:08.913Z,33.8
2022-09-07T08:25:26.018Z,33.9
2022-09-07T08:26:43.123Z,33.8
2022-09-07T08:28:00.227Z,33.9
2022-09-07T08:29:17.332Z,33.9
2022-09-07T08:30:34.437Z,33.8
2022-09-07T08:31:51.542Z,33.9
2022-09-07T08:33:08.647Z,33.8
2022-09-07T08:34:25.752Z,33.3
2022-09-07T08:35:41.873Z,33.4
2022-09-07T08:36:58.978Z,33.3
2022-09-07T08:38:16.085Z,33.3
2022-09-07T08:39:33.190Z,33.5
2022-09-07T08:40:50.294Z,33.5
2022-09-07T08:42:07.399Z,33.6
2022-09-07T08:43:24.505Z,33.5
2022-09-07T08:44:41.609Z,33.5
2022-09-07T08:45:58.714Z,33.3
2022-09-07T08:47:15.820Z,33.3
2022-09-07T08:48:32.924Z,33.5
2022-09-07T08:49:50.029Z,33.3
2022-09-07T08:51:07.134Z,33.3
2022-09-07T08:52:23.255Z,33.2
2022-09-07T08:53:40.360Z,33.5
2022-09-07T08:54:57.466Z,33.8
2022-09-07T08:56:14.571Z,33.3
2022-09-07T08:57:31.676Z,33.4
2022-09-07T08:58:48.781Z,33.5
2022-09-07T09:00:05.886Z,33.7
2022-09-07T09:01:22.991Z,33.6
2022-09-07T09:02:40.096Z,33.5
2022-09-07T09:03:57.201Z,33.5
2022-09-07T09:05:14.306Z,33.5
2022-09-07T09:06:31.411Z,33.3
2022-09-07T09:07:48.516Z,33.2
2022-09-07T09:09:04.637Z,33.2
2022-09-07T09:10:21.742Z,33.3
2022-09-07T09:11:38.847Z,33.5
2022-09-07T09:12:55.952Z,33.7
2022-09-07T09:14:13.057Z,33.7
2022-09-07T09:15:30.162Z,33.6
2022-09-07T09:16:47.267Z,33.7
2022-09-07T09:18:04.372Z,33.8
2022-09-07T09:19:21.477Z,33.7
2022-09-07T09:20:38.583Z,33.6
2022-09-07T09:21:55.688Z,33.4
2022-09-07T09:23:12.793Z,33.3
2022-09-07T09:24:29.898Z,33.1
2022-09-07T09:25:46.019Z,33.1
2022-09-07T09:27:03.124Z,32.9
2022-09-07T09:28:20.229Z,32.9
2022-09-07T09:29:37.334Z,32.9
2022-09-07T09:30:54.438Z,32.9
2022-09-07T09:32:11.544Z,32.9
2022-09-07T09:33:28.650Z,32.8
2022-09-07T09:34:45.754Z,32.4
2022-09-07T09:36:02.859Z,32.3
2022-09-07T09:37:19.964Z,32.1
2022-09-07T09:38:37.069Z,32.1
2022-09-07T09:39:54.174Z,32
2022-09-07T09:41:11.279Z,31.8
2022-09-07T09:42:27.399Z,31.7
2022-09-07T09:43:44.504Z,31.9
2022-09-07T09:45:01.609Z,32.1
2022-09-07T09:46:18.714Z,32
2022-09-07T09:47:35.818Z,31.7
2022-09-07T09:48:52.923Z,31.5
2022-09-07T09:50:10.027Z,31.6
2022-09-07T09:51:27.132Z,31.3
2022-09-07T09:52:44.237Z,30.8
2022-09-07T09:54:01.342Z,30.5
2022-09-07T09:55:18.446Z,30.4
2022-09-07T09:56:35.551Z,30.4
2022-09-07T09:57:52.655Z,30.3
2022-09-07T09:59:08.776Z,30.3
2022-09-07T10:00:25.880Z,30.2
2022-09-07T10:01:42.985Z,30.1
2022-09-07T10:03:00.089Z,30.1
2022-09-07T10:04:17.193Z,30.3
2022-09-07T10:05:34.298Z,30.4
2022-09-07T10:06:51.402Z,30.5
2022-09-07T10:08:08.507Z,30.4
2022-09-07T10:09:25.611Z,30.5
2022-09-07T10:10:42.715Z,30.6
2022-09-07T10:11:59.820Z,30.4
2022-09-07T10:13:16.924Z,30.4
2022-09-07T10:14:34.028Z,30.3
2022-09-07T10:15:50.149Z,30.4
2022-09-07T10:17:07.254Z,30.2
2022-09-07T10:18:24.358Z,30.1
2022-09-07T10:19:41.462Z,30.2
2022-09-07T10:20:58.567Z,30.4
2022-09-07T10:22:15.671Z,30.6
2022-09-07T10:23:32.775Z,30.6
2022-09-07T10:24:49.880Z,30.6
2022-09-07T10:26:06.984Z,30.7
2022-09-07T10:27:24.089Z,30.9
2022-09-07T10:28:41.193Z,30.9
2022-09-07T10:29:58.297Z,30.7
2022-09-07T10:31:15.402Z,30.5
2022-09-07T10:32:31.522Z,30.4
2022-09-07T10:33:48.627Z,30.3
2022-09-07T10:35:05.731Z,30.2
2022-09-07T10:36:22.835Z,30.2
2022-09-07T10:37:39.940Z,30.3
2022-09-07T10:38:57.044Z,30.3
2022-09-07T10:40:14.149Z,30.3
2022-09-07T10:41:31.253Z,30.2
2022-09-07T10:42:48.358Z,30.1
2022-09-07T10:44:05.462Z,30
2022-09-07T10:45:22.567Z,30.1
2022-09-07T10:46:39.671Z,30.1
2022-09-07T10:47:56.776Z,29.9
2022-09-07T10:49:12.896Z,29.7
2022-09-07T10:50:30.001Z,29.6
2022-09-07T10:51:47.105Z,29.5
2022-09-07T10:53:04.210Z,29.4
2022-09-07T10:54:21.314Z,29.3
2022-09-07T10:55:38.418Z,29.2
2022-09-07T10:56:55.523Z,29.1
2022-09-07T10:58:12.627Z,29.1
2022-09-07T10:59:29.730Z,28.9
2022-09-07T11:00:46.835Z,28.9
2022-09-07T11:02:03.939Z,28.8
2022-09-07T11:03:21.042Z,28.7
2022-09-07T11:04:38.146Z,28.8
2022-09-07T11:05:54.267Z,28.9
2022-09-07T11:07:11.371Z,28.9
2022-09-07T11:08:28.475Z,28.9
2022-09-07T11:09:45.579Z,28.9
2022-09-07T11:11:02.684Z,28.8
2022-09-07T11:12:19.788Z,28.8
2022-09-07T11:13:35.908Z,28.6
2022-09-07T11:14:53.012Z,28.6
2022-09-07T11:16:10.117Z,28.5
2022-09-07T11:17:27.222Z,28.4
2022-09-07T11:18:44.326Z,28.4
2022-09-07T11:20:01.431Z,28.3
2022-09-07T11:21:18.536Z,28.2
2022-09-07T11:22:35.640Z,28.2
2022-09-07T11:23:52.745Z,28.1
2022-09-07T11:25:09.850Z,28.2
2022-09-07T11:26:26.954Z,28.1
2022-09-07T11:27:44.059Z,28
2022-09-07T11:29:01.163Z,28
2022-09-07T11:30:17.284Z,28
2022-09-07T11:31:34.389Z,28
2022-09-07T11:32:51.493Z,28
2022-09-07T11:34:08.597Z,27.9
2022-09-07T11:35:25.702Z,27.9
2022-09-07T11:36:42.806Z,27.9
2022-09-07T11:37:59.910Z,27.9
2022-09-07T11:39:17.015Z,27.9
2022-09-07T11:40:34.119Z,27.8
2022-09-07T11:41:51.223Z,27.8
2022-09-07T11:43:08.327Z,27.8
2022-09-07T11:44:25.432Z,27.8
2022-09-07T11:45:42.536Z,27.8
2022-09-07T11:46:58.656Z,27.9
2022-09-07T11:48:15.761Z,27.8
2022-09-07T11:49:32.865Z,27.8
2022-09-07T11:50:49.969Z,27.8
2022-09-07T11:52:07.073Z,27.9
2022-09-07T11:53:24.177Z,27.9
2022-09-07T11:54:41.281Z,27.9
2022-09-07T11:55:58.385Z,27.9
2022-09-07T11:57:15.490Z,27.9
2022-09-07T11:58:32.594Z,27.9
2022-09-07T11:59:49.698Z,27.9
2022-09-07T12:01:06.802Z,27.9
2022-09-07T12:02:23.906Z,28
2022-09-07T12:03:40.026Z,28
2022-09-07T12:04:57.131Z,28
2022-09-07T12:06:14.235Z,28
2022-09-07T12:07:31.339Z,28
2022-09-07T12:08:48.444Z,28.1
2022-09-07T12:10:05.548Z,28.1
2022-09-07T12:11:22.653Z,28.1
2022-09-07T12:12:39.757Z,28.1
2022-09-07T12:13:56.861Z,28.1
2022-09-07T12:15:13.965Z,28.1
2022-09-07T12:16:31.069Z,28.1
2022-09-07T12:17:48.173Z,28.2
2022-09-07T12:19:05.277Z,28.1
2022-09-07T12:20:21.398Z,28.1
2022-09-07T12:21:38.502Z,28.2
2022-09-07T12:22:55.606Z,28.1
2022-09-07T12:24:12.710Z,28.1
2022-09-07T12:25:29.814Z,28
2022-09-07T12:26:46.918Z,28
2022-09-07T12:28:04.022Z,28.1
2022-09-07T12:29:21.126Z,28.2
2022-09-07T12:30:38.231Z,28.2
2022-09-07T12:31:55.335Z,28.3
2022-09-07T12:33:12.439Z,28.4
2022-09-07T12:34:29.543Z,28.5
2022-09-07T12:35:46.647Z,28.4
2022-09-07T12:37:02.768Z,28.4
2022-09-07T12:38:19.872Z,28.4
2022-09-07T12:39:36.976Z,28.4
2022-09-07T12:40:54.080Z,28.4
2022-09-07T12:42:11.184Z,28.4
2022-09-07T12:43:28.288Z,28.4
2022-09-07T12:44:45.393Z,28.4
2022-09-07T12:46:02.497Z,28.5
2022-09-07T12:47:19.601Z,28.6
2022-09-07T12:48:36.705Z,28.6
2022-09-07T12:49:53.809Z,28.6
2022-09-07T12:51:10.913Z,28.5
2022-09-07T12:52:28.018Z,28.5
2022-09-07T12:53:44.138Z,28.4
2022-09-07T12:55:01.242Z,28.3
2022-09-07T12:56:18.346Z,28.2
2022-09-07T12:57:35.451Z,28.3
2022-09-07T12:58:52.555Z,28.3
2022-09-07T13:00:09.659Z,28.3
2022-09-07T13:01:26.763Z,28.4
2022-09-07T13:02:43.867Z,28.4
2022-09-07T13:04:00.972Z,28.4
2022-09-07T13:05:18.076Z,28.5
2022-09-07T13:06:35.180Z,28.5
2022-09-07T13:07:52.284Z,28.7
2022-09-07T13:09:09.388Z,28.7
2022-09-07T13:10:25.508Z,28.7
2022-09-07T13:11:42.613Z,28.7
2022-09-07T13:12:59.717Z,28.7
2022-09-07T13:14:16.821Z,28.6
2022-09-07T13:15:33.927Z,28.5
2022-09-07T13:16:51.031Z,28.6
2022-09-07T13:18:08.135Z,28.6
2022-09-07T13:19:25.239Z,28.7
2022-09-07T13:20:42.344Z,28.6
2022-09-07T13:21:59.449Z,28.5
2022-09-07T13:23:16.554Z,28.4
2022-09-07T13:24:33.658Z,28.4
2022-09-07T13:25:50.763Z,28.5
2022-09-07T13:27:06.883Z,28.6
2022-09-07T13:28:23.987Z,28.7
2022-09-07T13:29:41.091Z,28.7
2022-09-07T13:30:58.196Z,28.8
2022-09-07T13:32:15.300Z,28.7
2022-09-07T13:33:32.404Z,28.8
2022-09-07T13:34:49.508Z,28.8
2022-09-07T13:36:06.612Z,28.8
2022-09-07T13:37:23.717Z,28.8
2022-09-07T13:38:40.821Z,28.8
2022-09-07T13:39:57.926Z,28.8
2022-09-07T13:41:15.030Z,28.7
2022-09-07T13:42:32.135Z,28.5
2022-09-07T13:43:48.255Z,28.5
2022-09-07T13:45:05.360Z,28.6
2022-09-07T13:46:22.464Z,28.7
2022-09-07T13:47:39.569Z,28.8
2022-09-07T13:48:56.673Z,28.8
2022-09-07T13:50:13.778Z,28.9
2022-09-07T13:51:30.882Z,28.8
2022-09-07T13:52:47.986Z,28.8
2022-09-07T13:54:05.090Z,28.8
2022-09-07T13:55:22.194Z,28.8
2022-09-07T13:56:39.298Z,28.8
2022-09-07T13:57:56.403Z,28.8
2022-09-07T13:59:13.507Z,28.7
2022-09-07T14:00:29.627Z,28.6
2022-09-07T14:01:46.733Z,28.6
2022-09-07T14:03:03.837Z,28.5
2022-09-07T14:04:20.941Z,28.4
2022-09-07T14:05:38.045Z,28.3
2022-09-07T14:06:55.149Z,28.3
2022-09-07T14:08:12.253Z,28.3
2022-09-07T14:09:29.357Z,28.3
2022-09-07T14:10:46.462Z,28.4
2022-09-07T14:12:03.566Z,28.3
2022-09-07T14:13:20.670Z,28.2
2022-09-07T14:14:37.774Z,28.3
2022-09-07T14:15:54.878Z,28.2
2022-09-07T14:17:10.999Z,28.3
2022-09-07T14:18:28.103Z,28.2
2022-09-07T14:19:45.207Z,28.3
2022-09-07T14:21:02.311Z,28.3
2022-09-07T14:22:19.415Z,28.4
2022-09-07T14:23:36.520Z,28.3
2022-09-07T14:24:53.624Z,28.4
2022-09-07T14:26:10.728Z,28.3
2022-09-07T14:27:27.832Z,28.3
2022-09-07T14:28:44.936Z,28.2
2022-09-07T14:30:02.040Z,28.2
2022-09-07T14:31:19.144Z,28.3
2022-09-07T14:32:36.249Z,28.3
2022-09-07T14:33:52.369Z,28.3
2022-09-07T14:35:09.473Z,28.4
2022-09-07T14:36:26.577Z,28.4
2022-09-07T14:37:43.681Z,28.4
2022-09-07T14:39:00.785Z,28.4
2022-09-07T14:40:17.889Z,28.4
2022-09-07T14:41:34.993Z,28.4
2022-09-07T14:42:52.098Z,28.4
2022-09-07T14:44:09.202Z,28.3
2022-09-07T14:45:26.306Z,28.3
2022-09-07T14:46:43.410Z,28.3
2022-09-07T14:48:00.514Z,28.3
2022-09-07T14:49:17.618Z,28.2
2022-09-07T14:50:33.739Z,28.3
2022-09-07T14:51:50.843Z,28.2
2022-09-07T14:53:07.947Z,28.2
2022-09-07T14:54:25.051Z,28.2
2022-09-07T14:55:42.155Z,28.2
2022-09-07T14:56:59.260Z,28.2
2022-09-07T14:58:16.363Z,28.2
2022-09-07T14:59:33.467Z,28.3
2022-09-07T15:00:50.571Z,28.2
2022-09-07T15:02:07.675Z,28.2
2022-09-07T15:03:24.779Z,28.2
2022-09-07T15:04:41.883Z,28.2
2022-09-07T15:05:58.987Z,28.2
2022-09-07T15:07:15.108Z,28.1
2022-09-07T15:08:32.212Z,28
2022-09-07T15:09:49.316Z,28.1
2022-09-07T15:11:06.420Z,28.1
2022-09-07T15:12:23.524Z,28.1
2022-09-07T15:13:40.628Z,28.1
2022-09-07T15:14:57.732Z,28
2022-09-07T15:16:14.836Z,28
2022-09-07T15:17:31.941Z,28
2022-09-07T15:18:49.045Z,28
2022-09-07T15:21:23.254Z,27.9
2022-09-07T15:22:40.358Z,27.8
2022-09-07T15:23:56.478Z,27.7
2022-09-07T15:25:13.582Z,27.6
2022-09-07T15:26:30.686Z,27.6
2022-09-07T15:27:47.790Z,27.5
2022-09-07T15:29:04.895Z,27.4
2022-09-07T15:30:21.999Z,27.4
2022-09-07T15:31:38.119Z,27.4
2022-09-07T15:32:55.223Z,27.4
2022-09-07T15:34:12.327Z,27.4
2022-09-07T15:35:29.431Z,27.4
2022-09-07T15:36:46.535Z,27.4
2022-09-07T15:38:03.639Z,27.4
2022-09-07T15:39:20.743Z,27.3
2022-09-07T15:40:37.848Z,27.4
2022-09-07T15:41:54.952Z,27.4
2022-09-07T15:43:12.056Z,27.4
2022-09-07T15:44:29.160Z,27.3
2022-09-07T15:45:46.264Z,27.3
2022-09-07T15:47:03.368Z,27.3
2022-09-07T15:48:19.488Z,27.3
2022-09-07T15:49:36.592Z,27.3
2022-09-07T15:50:53.696Z,27.3
2022-09-07T15:52:10.801Z,27.3
2022-09-07T15:53:27.905Z,27.3
2022-09-07T15:54:45.009Z,27.3
2022-09-07T15:56:02.113Z,27.2
2022-09-07T15:57:19.217Z,27.3
2022-09-07T15:58:36.321Z,27.2
2022-09-07T15:59:53.425Z,27.3
2022-09-07T16:01:10.529Z,27.3
2022-09-07T16:02:27.634Z,27.2
2022-09-07T16:03:44.738Z,27.1
2022-09-07T16:05:00.858Z,27
2022-09-07T16:06:17.963Z,27
2022-09-07T16:07:35.067Z,27
2022-09-07T16:08:52.171Z,26.9
2022-09-07T16:10:09.275Z,26.9
2022-09-07T16:11:26.379Z,26.9
2022-09-07T16:12:43.484Z,26.8
2022-09-07T16:14:00.588Z,26.8
2022-09-07T16:15:17.692Z,26.8
2022-09-07T16:16:34.796Z,26.8
2022-09-07T16:17:51.900Z,26.8
2022-09-07T16:19:09.004Z,26.8
2022-09-07T16:20:26.106Z,26.7
2022-09-07T16:21:42.227Z,26.7
2022-09-07T16:22:59.331Z,26.7
2022-09-07T16:24:16.435Z,26.7
2022-09-07T16:25:33.540Z,26.7
2022-09-07T16:26:50.644Z,26.6
2022-09-07T16:28:07.748Z,26.5
2022-09-07T16:29:24.853Z,26.4
2022-09-07T16:30:41.957Z,26.4
2022-09-07T16:31:59.061Z,26.4
2022-09-07T16:33:16.165Z,26.3
2022-09-07T16:34:33.269Z,26.2
2022-09-07T16:35:50.374Z,26.1
2022-09-07T16:37:07.478Z,26.1
2022-09-07T16:38:23.598Z,26
2022-09-07T16:39:40.702Z,26
2022-09-07T16:40:57.807Z,26
2022-09-07T16:42:14.911Z,26
2022-09-07T16:43:32.016Z,26
2022-09-07T16:44:49.120Z,25.9
2022-09-07T16:46:06.224Z,25.9
2022-09-07T16:47:23.328Z,25.9
2022-09-07T16:48:40.432Z,25.8
2022-09-07T16:49:57.536Z,25.8
2022-09-07T16:51:14.640Z,25.8
2022-09-07T16:52:31.744Z,25.8
2022-09-07T16:53:48.848Z,25.8
2022-09-07T16:55:04.968Z,25.8
2022-09-07T16:56:22.072Z,25.8
2022-09-07T16:57:39.175Z,25.7
2022-09-07T16:58:56.280Z,25.7
2022-09-07T17:00:13.383Z,25.6
2022-09-07T17:01:30.487Z,25.6
2022-09-07T17:02:47.591Z,25.6
2022-09-07T17:04:04.695Z,25.6
2022-09-07T17:05:21.799Z,25.6
2022-09-07T17:06:38.903Z,25.6
2022-09-07T17:07:56.007Z,25.6
2022-09-07T17:09:13.111Z,25.6
2022-09-07T17:10:30.215Z,25.6
2022-09-07T17:11:46.335Z,25.6
2022-09-07T17:13:03.440Z,25.6
2022-09-07T17:14:20.544Z,25.5